createdAt,value
2023-02-09T00:00:02.037Z,72.30
2023-02-09T00:02:29.398Z,72.73
2023-02-09T00:04:56.278Z,73.90
2023-02-09T00:07:23.085Z,77.40
2023-02-09T00:09:51.857Z,70.27
2023-02-09T00:12:37.818Z,79.90
2023-02-09T00:15:06.370Z,73.60
2023-02-09T00:17:37.260Z,75.20
2023-02-09T00:20:05.711Z,75.77
2023-02-09T00:22:33.064Z,78.57
2023-02-09T00:25:00.110Z,75.73
2023-02-09T00:27:27.010Z,73.93
2023-02-09T00:29:53.917Z,78.67
2023-02-09T00:32:20.753Z,79.30
2023-02-09T00:34:47.691Z,80.17
2023-02-09T00:37:14.603Z,73.13
2023-02-09T00:39:41.454Z,83.13
2023-02-09T00:42:08.299Z,81.47
2023-02-09T00:44:37.409Z,76.93
2023-02-09T00:47:05.274Z,73.87
2023-02-09T00:49:33.555Z,70.20
2023-02-09T00:52:00.467Z,69.87
2023-02-09T00:54:27.497Z,68.43
2023-02-09T00:56:54.324Z,67.60
2023-02-09T00:59:21.228Z,68.70
2023-02-09T01:01:48.089Z,69.03
2023-02-09T01:04:14.974Z,72.60
2023-02-09T01:06:41.883Z,68.57
2023-02-09T01:09:08.698Z,65.77
2023-02-09T01:11:35.614Z,65.53
2023-02-09T01:14:04.438Z,63.77
2023-02-09T01:16:31.820Z,67.17
2023-02-09T01:19:01.461Z,63.70
2023-02-09T01:21:28.786Z,67.10
2023-02-09T01:23:55.802Z,62.17
2023-02-09T01:26:23.015Z,70.07
2023-02-09T01:28:52.057Z,62.00
2023-02-09T01:31:31.490Z,58.13
2023-02-09T01:34:00.191Z,56.13
2023-02-09T01:36:27.684Z,57.60
2023-02-09T01:38:56.166Z,56.60
2023-02-09T01:41:23.218Z,63.57
2023-02-09T01:44:03.139Z,62.67
2023-02-09T01:46:32.534Z,62.03
2023-02-09T01:49:16.114Z,63.70
2023-02-09T01:51:44.944Z,64.23
2023-02-09T01:54:16.836Z,64.33
2023-02-09T01:56:48.445Z,63.77
2023-02-09T01:59:16.478Z,63.63
2023-02-09T02:01:44.249Z,64.80
2023-02-09T02:04:11.777Z,62.93
2023-02-09T02:06:39.052Z,60.43
2023-02-09T02:09:13.555Z,61.60
2023-02-09T02:11:43.243Z,62.63
2023-02-09T02:14:34.261Z,62.97
2023-02-09T02:17:26.915Z,63.73
2023-02-09T02:20:15.015Z,64.23
2023-02-09T02:23:13.926Z,71.77
2023-02-09T02:26:07.096Z,63.90
2023-02-09T02:29:00.161Z,62.80
2023-02-09T02:31:51.268Z,67.80
2023-02-09T02:34:18.094Z,61.30
2023-02-09T02:36:52.258Z,62.90
2023-02-09T02:39:37.433Z,61.20
2023-02-09T02:42:39.796Z,60.67
2023-02-09T02:45:11.143Z,60.37
2023-02-09T02:47:42.498Z,60.00
2023-02-09T02:50:14.782Z,60.73
2023-02-09T02:52:46.051Z,64.07
2023-02-09T02:55:17.083Z,63.97
2023-02-09T02:57:49.465Z,63.97
2023-02-09T03:00:30.470Z,63.27
2023-02-09T03:03:02.310Z,60.13
2023-02-09T03:05:30.713Z,61.70
2023-02-09T03:07:57.589Z,66.77
2023-02-09T03:10:32.648Z,66.37
2023-02-09T03:13:08.317Z,63.77
2023-02-09T03:15:41.317Z,68.73
2023-02-09T03:18:18.818Z,67.47
2023-02-09T03:20:55.134Z,70.23
2023-02-09T03:23:45.652Z,64.77
2023-02-09T03:26:22.422Z,62.80
2023-02-09T03:28:54.412Z,60.00
2023-02-09T03:31:23.142Z,62.50
2023-02-09T03:33:50.756Z,64.80
2023-02-09T03:36:20.017Z,59.50
2023-02-09T03:38:46.830Z,64.33
2023-02-09T03:41:13.804Z,63.33
2023-02-09T03:43:59.133Z,59.40
2023-02-09T03:46:26.076Z,60.10
2023-02-09T03:48:52.912Z,59.17
2023-02-09T03:51:19.735Z,59.93
2023-02-09T03:53:47.277Z,60.13
2023-02-09T03:56:14.176Z,59.63
2023-02-09T03:58:40.998Z,59.37
2023-02-09T04:01:10.530Z,61.23
2023-02-09T04:03:39.931Z,61.90
2023-02-09T04:06:10.019Z,60.20
2023-02-09T04:08:37.159Z,59.37
2023-02-09T04:11:04.121Z,63.90
2023-02-09T04:13:31.107Z,62.67
2023-02-09T04:15:58.034Z,62.33
2023-02-09T04:18:24.888Z,60.37
2023-02-09T04:20:51.733Z,65.07
2023-02-09T04:23:20.927Z,64.50
2023-02-09T04:25:47.956Z,65.83
2023-02-09T04:28:14.858Z,63.53
2023-02-09T04:30:43.835Z,64.60
2023-02-09T04:33:11.411Z,63.90
2023-02-09T04:35:38.603Z,68.47
2023-02-09T04:38:05.466Z,67.80
2023-02-09T04:40:32.264Z,66.17
2023-02-09T04:42:59.099Z,69.13
2023-02-09T04:45:25.898Z,71.87
2023-02-09T04:47:52.729Z,69.20
2023-02-09T04:50:19.638Z,70.07
2023-02-09T04:52:46.520Z,73.17
2023-02-09T04:55:13.390Z,72.13
2023-02-09T04:57:59.110Z,69.03
2023-02-09T05:00:25.946Z,69.97
2023-02-09T05:02:54.050Z,64.13
2023-02-09T05:05:21.103Z,66.70
2023-02-09T05:07:47.978Z,66.70
2023-02-09T05:10:14.883Z,65.97
2023-02-09T05:12:41.705Z,68.07
2023-02-09T05:15:08.983Z,65.27
2023-02-09T05:17:35.861Z,70.03
2023-02-09T05:20:03.085Z,67.47
2023-02-09T05:22:29.894Z,64.10
2023-02-09T05:24:56.701Z,64.07
2023-02-09T05:27:23.564Z,63.87
2023-02-09T05:29:50.454Z,66.60
2023-02-09T05:32:17.581Z,62.83
2023-02-09T05:34:44.472Z,62.87
2023-02-09T05:37:11.281Z,61.53
2023-02-09T05:39:38.078Z,62.80
2023-02-09T05:42:16.922Z,59.90
2023-02-09T05:44:45.789Z,59.80
2023-02-09T05:47:13.775Z,61.63
2023-02-09T05:49:40.685Z,62.67
2023-02-09T05:52:08.308Z,62.27
2023-02-09T05:54:35.226Z,65.57
2023-02-09T05:57:02.337Z,63.70
2023-02-09T05:59:29.224Z,62.90
2023-02-09T06:01:56.170Z,62.83
2023-02-09T06:04:25.496Z,63.37
2023-02-09T06:06:52.745Z,61.60
2023-02-09T06:09:20.079Z,61.90
2023-02-09T06:11:47.342Z,58.83
2023-02-09T06:14:14.331Z,59.63
2023-02-09T06:16:41.754Z,57.60
2023-02-09T06:19:16.008Z,57.30
2023-02-09T06:21:43.171Z,58.00
2023-02-09T06:24:10.192Z,59.27
2023-02-09T06:26:37.445Z,59.60
2023-02-09T06:29:04.457Z,56.83
2023-02-09T06:31:31.499Z,57.90
2023-02-09T06:33:58.402Z,61.37
2023-02-09T06:36:25.291Z,63.47
2023-02-09T06:38:52.251Z,71.13
2023-02-09T06:41:19.120Z,77.93
2023-02-09T06:43:46.028Z,78.27
2023-02-09T06:46:13.700Z,77.03
2023-02-09T06:48:41.016Z,78.90
2023-02-09T06:51:10.447Z,73.40
2023-02-09T06:53:38.606Z,78.03
2023-02-09T06:56:06.994Z,80.17
2023-02-09T06:58:34.629Z,70.57
2023-02-09T07:01:06.376Z,66.83
2023-02-09T07:03:33.470Z,57.87
2023-02-09T07:06:14.972Z,60.73
2023-02-09T07:08:43.183Z,59.10
2023-02-09T07:11:12.551Z,57.10
2023-02-09T07:13:39.513Z,54.53
2023-02-09T07:16:08.709Z,50.00
2023-02-09T07:18:36.099Z,54.97
2023-02-09T07:21:06.592Z,52.07
2023-02-09T07:23:33.493Z,49.60
2023-02-09T07:26:08.950Z,53.63
2023-02-09T07:28:36.632Z,51.53
2023-02-09T07:31:06.186Z,56.33
2023-02-09T07:33:34.781Z,59.83
2023-02-09T07:36:05.302Z,56.23
2023-02-09T07:38:32.485Z,79.30
2023-02-09T07:41:01.166Z,74.40
2023-02-09T07:43:28.107Z,58.03
2023-02-09T07:46:00.862Z,53.47
2023-02-09T07:48:28.017Z,51.00
2023-02-09T07:50:55.082Z,45.10
2023-02-09T07:53:22.904Z,45.97
2023-02-09T07:55:49.814Z,44.70
2023-02-09T07:58:18.402Z,49.53
2023-02-09T08:00:46.406Z,43.37
2023-02-09T08:03:15.833Z,43.07
2023-02-09T08:06:06.231Z,42.03
2023-02-09T08:08:33.206Z,45.67
2023-02-09T08:11:04.281Z,41.83
2023-02-09T08:13:35.880Z,48.47
2023-02-09T08:16:06.196Z,55.67
2023-02-09T08:18:37.795Z,52.23
2023-02-09T08:21:08.632Z,44.90
2023-02-09T08:23:36.973Z,50.77
2023-02-09T08:26:10.580Z,101.37
2023-02-09T08:28:44.411Z,163.40
2023-02-09T08:31:17.895Z,235.03
2023-02-09T08:33:46.467Z,121.50
2023-02-09T08:36:14.396Z,55.15
2023-02-09T08:38:41.586Z,50.55
2023-02-09T08:41:11.079Z,64.00
2023-02-09T08:43:38.059Z,73.45
2023-02-09T08:46:13.328Z,73.78
2023-02-09T08:48:43.042Z,50.05
2023-02-09T08:51:12.080Z,54.67
2023-02-09T08:53:39.915Z,48.90
2023-02-09T08:56:07.139Z,57.13
2023-02-09T08:58:34.009Z,47.70
2023-02-09T09:01:01.158Z,55.65
2023-02-09T09:03:31.600Z,50.08
2023-02-09T09:06:04.297Z,40.05
2023-02-09T09:08:32.514Z,39.00
2023-02-09T09:10:59.358Z,39.03
2023-02-09T09:13:26.686Z,45.92
2023-02-09T09:15:55.433Z,42.45
2023-02-09T09:18:24.412Z,44.97
2023-02-09T09:20:51.836Z,99.03
2023-02-09T09:23:19.050Z,81.45
2023-02-09T09:25:46.197Z,74.90
2023-02-09T09:28:13.358Z,97.05
2023-02-09T09:30:40.349Z,57.53
2023-02-09T09:33:07.300Z,34.07
2023-02-09T09:35:34.205Z,33.17
2023-02-09T09:38:01.723Z,65.87
2023-02-09T09:40:32.974Z,54.03
2023-02-09T09:46:39.744Z,22.07
2023-02-09T09:49:23.256Z,48.37
2023-02-09T09:51:55.223Z,35.20
2023-02-09T09:54:25.636Z,36.70
2023-02-09T09:56:54.972Z,31.70
2023-02-09T09:59:56.280Z,23.80
2023-02-09T10:02:30.280Z,32.93
2023-02-09T10:05:21.743Z,24.83
2023-02-09T10:08:16.186Z,18.93
2023-02-09T10:11:05.758Z,23.47
2023-02-09T10:13:35.087Z,21.20
2023-02-09T10:16:02.607Z,21.60
2023-02-09T10:18:31.183Z,21.70
2023-02-09T10:21:06.932Z,25.17
2023-02-09T10:23:45.296Z,25.10
2023-02-09T10:26:25.967Z,41.93
2023-02-09T10:28:58.076Z,23.57
2023-02-09T10:31:47.798Z,31.13
2023-02-09T10:34:18.159Z,16.20
2023-02-09T10:36:51.920Z,16.87
2023-02-09T10:39:30.288Z,17.67
2023-02-09T10:42:12.372Z,56.77
2023-02-09T10:44:40.383Z,17.13
2023-02-09T10:47:11.819Z,24.80
2023-02-09T10:49:42.226Z,32.83
2023-02-09T10:52:24.163Z,13.70
2023-02-09T10:54:56.667Z,11.13
2023-02-09T10:57:45.537Z,13.83
2023-02-09T11:00:24.851Z,14.23
2023-02-09T11:02:55.036Z,24.33
2023-02-09T11:05:22.029Z,41.57
2023-02-09T11:08:21.330Z,40.67
2023-02-09T11:11:09.370Z,54.97
2023-02-09T11:13:37.204Z,24.70
2023-02-09T11:16:21.850Z,14.57
2023-02-09T11:19:00.143Z,13.07
2023-02-09T11:21:54.817Z,15.80
2023-02-09T11:24:36.388Z,14.50
2023-02-09T11:27:27.171Z,13.83
2023-02-09T11:30:24.518Z,13.40
2023-02-09T11:33:10.098Z,14.53
2023-02-09T11:35:48.003Z,12.73
2023-02-09T11:38:19.027Z,15.03
2023-02-09T11:40:55.721Z,12.63
2023-02-09T11:43:38.174Z,15.43
2023-02-09T11:46:14.157Z,13.13
2023-02-09T11:48:45.755Z,14.03
2023-02-09T11:51:23.140Z,13.93
2023-02-09T11:54:16.873Z,22.30
2023-02-09T11:56:56.004Z,15.83
2023-02-09T11:59:30.826Z,27.87
2023-02-09T12:02:16.466Z,13.23
2023-02-09T12:05:02.843Z,12.70
2023-02-09T12:07:43.658Z,13.87
2023-02-09T12:10:23.827Z,21.00
2023-02-09T12:13:00.513Z,13.00
2023-02-09T12:15:38.643Z,11.17
2023-02-09T12:18:21.333Z,11.37
2023-02-09T12:20:56.272Z,12.37
2023-02-09T12:23:41.100Z,11.97
2023-02-09T12:26:16.780Z,13.53
2023-02-09T12:28:48.202Z,11.80
2023-02-09T12:31:26.977Z,12.10
2023-02-09T12:33:59.902Z,12.93
2023-02-09T12:36:33.007Z,12.17
2023-02-09T12:39:24.360Z,13.17
2023-02-09T12:41:51.221Z,11.87
2023-02-09T12:44:19.428Z,11.80
2023-02-09T12:46:51.891Z,12.47
2023-02-09T12:49:31.554Z,12.50
2023-02-09T12:52:01.185Z,12.33
2023-02-09T12:54:53.273Z,13.60
2023-02-09T12:57:23.899Z,13.57
2023-02-09T12:59:51.097Z,13.87
2023-02-09T13:02:35.898Z,13.80
2023-02-09T13:05:37.452Z,13.07
2023-02-09T13:08:16.368Z,14.03
2023-02-09T13:10:46.010Z,12.93
2023-02-09T13:13:12.840Z,16.17
2023-02-09T13:16:12.681Z,15.13
2023-02-09T13:19:09.859Z,65.10
2023-02-09T13:22:16.571Z,21.07
2023-02-09T13:24:56.614Z,16.67
2023-02-09T13:27:25.082Z,61.47
2023-02-09T13:29:54.112Z,22.43
2023-02-09T13:32:48.791Z,52.60
2023-02-09T13:35:23.890Z,24.67
2023-02-09T13:37:59.424Z,16.63
2023-02-09T13:40:29.773Z,13.77
2023-02-09T13:43:13.683Z,12.43
2023-02-09T13:45:49.413Z,13.20
2023-02-09T13:48:27.620Z,11.87
2023-02-09T13:50:56.752Z,11.63
2023-02-09T13:53:26.218Z,11.10
2023-02-09T13:55:56.531Z,10.77
2023-02-09T13:58:33.052Z,11.23
2023-02-09T14:01:09.134Z,9.77
2023-02-09T14:03:58.349Z,9.43
2023-02-09T14:06:28.284Z,8.80
2023-02-09T14:08:57.797Z,8.07
2023-02-09T14:11:42.345Z,7.73
2023-02-09T14:14:19.119Z,8.60
2023-02-09T14:16:53.440Z,8.43
2023-02-09T14:19:31.268Z,7.80
2023-02-09T14:21:59.620Z,8.53
2023-02-09T14:24:28.411Z,7.20
2023-02-09T14:27:16.403Z,8.80
2023-02-09T14:29:47.325Z,11.87
2023-02-09T14:32:35.761Z,10.00
2023-02-09T14:35:30.006Z,9.23
2023-02-09T14:38:01.194Z,9.10
2023-02-09T14:40:28.275Z,8.93
2023-02-09T14:43:20.055Z,9.13
2023-02-09T14:45:57.193Z,10.52
2023-02-09T14:48:29.455Z,8.57
2023-02-09T14:51:00.444Z,7.93
2023-02-09T14:53:33.460Z,8.90
2023-02-09T14:56:00.578Z,8.87
2023-02-09T14:58:32.585Z,8.93
2023-02-09T15:01:01.694Z,9.80
2023-02-09T15:03:29.024Z,10.47
2023-02-09T15:05:59.093Z,10.27
2023-02-09T15:08:28.483Z,9.87
2023-02-09T15:10:59.121Z,9.87
2023-02-09T15:13:29.156Z,8.87
2023-02-09T15:15:56.289Z,9.67
2023-02-09T15:18:25.999Z,9.90
2023-02-09T15:20:53.430Z,8.80
2023-02-09T15:23:20.402Z,9.67
2023-02-09T15:25:48.129Z,11.37
2023-02-09T15:28:28.259Z,9.83
2023-02-09T15:30:56.674Z,9.30
2023-02-09T15:33:25.246Z,11.10
2023-02-09T15:35:52.165Z,9.90
2023-02-09T15:38:19.231Z,9.23
2023-02-09T15:41:09.053Z,9.33
2023-02-09T15:43:54.678Z,9.60
2023-02-09T15:46:40.383Z,10.40
2023-02-09T15:49:07.679Z,9.63
2023-02-09T15:51:37.337Z,10.47
2023-02-09T15:54:09.289Z,9.20
2023-02-09T15:56:37.176Z,9.20
2023-02-09T15:59:05.691Z,8.73
2023-02-09T16:01:34.550Z,8.87
2023-02-09T16:04:13.586Z,9.73
2023-02-09T16:06:45.416Z,9.97
2023-02-09T16:09:18.962Z,9.80
2023-02-09T16:11:48.476Z,9.27
2023-02-09T16:14:20.760Z,11.67
2023-02-09T16:16:48.297Z,11.90
2023-02-09T16:19:16.849Z,12.30
2023-02-09T16:21:49.976Z,12.93
2023-02-09T16:24:32.847Z,12.13
2023-02-09T16:27:02.048Z,11.90
2023-02-09T16:29:29.093Z,17.10
2023-02-09T16:31:56.010Z,18.00
2023-02-09T16:34:22.860Z,20.60
2023-02-09T16:36:50.259Z,22.97
2023-02-09T16:39:19.698Z,21.10
2023-02-09T16:41:50.835Z,19.47
2023-02-09T16:44:19.673Z,17.43
2023-02-09T16:46:48.956Z,16.10
2023-02-09T16:49:40.062Z,14.90
2023-02-09T16:52:21.002Z,14.80
2023-02-09T16:54:51.374Z,11.97
2023-02-09T16:57:23.114Z,11.93
2023-02-09T16:59:51.249Z,11.77
2023-02-09T17:02:39.765Z,12.00
2023-02-09T17:05:21.142Z,12.27
2023-02-09T17:07:55.144Z,12.57
2023-02-09T17:10:26.296Z,12.70
2023-02-09T17:12:53.872Z,14.07
2023-02-09T17:15:30.130Z,14.10
2023-02-09T17:18:03.559Z,13.73
2023-02-09T17:20:37.720Z,12.23
2023-02-09T17:23:05.122Z,13.07
2023-02-09T17:25:32.047Z,12.63
2023-02-09T17:27:59.071Z,11.87
2023-02-09T17:30:26.387Z,12.93
2023-02-09T17:33:00.363Z,13.23
2023-02-09T17:35:53.131Z,11.33
2023-02-09T17:38:23.097Z,12.43
2023-02-09T17:40:51.439Z,11.63
2023-02-09T17:43:18.442Z,12.17
2023-02-09T17:45:50.794Z,11.57
2023-02-09T17:48:18.716Z,11.87
2023-02-09T17:50:48.662Z,11.60
2023-02-09T17:53:21.495Z,11.47
2023-02-09T17:55:49.080Z,12.53
2023-02-09T17:58:16.884Z,14.90
2023-02-09T18:00:45.021Z,13.43
2023-02-09T18:03:16.727Z,14.33
2023-02-09T18:05:44.459Z,13.87
2023-02-09T18:08:11.568Z,13.73
2023-02-09T18:10:38.700Z,16.20
2023-02-09T18:13:05.985Z,12.73
2023-02-09T18:15:37.150Z,12.83
2023-02-09T18:18:04.595Z,12.97
2023-02-09T18:20:33.502Z,12.80
2023-02-09T18:23:02.809Z,12.90
2023-02-09T18:25:31.110Z,12.73
2023-02-09T18:27:57.982Z,13.17
2023-02-09T18:30:28.258Z,11.47
2023-02-09T18:32:56.023Z,12.27
2023-02-09T18:35:31.047Z,12.07
2023-02-09T18:37:57.886Z,11.93
2023-02-09T18:40:24.883Z,12.20
2023-02-09T18:42:52.011Z,12.13
2023-02-09T18:45:20.227Z,12.00
2023-02-09T18:47:47.411Z,12.13
2023-02-09T18:50:19.444Z,12.83
2023-02-09T18:52:47.394Z,12.50
2023-02-09T18:55:14.297Z,12.90
2023-02-09T18:57:41.214Z,13.47
2023-02-09T19:00:09.989Z,15.73
2023-02-09T19:02:36.885Z,12.17
2023-02-09T19:05:04.617Z,14.93
2023-02-09T19:07:33.416Z,14.03
2023-02-09T19:10:00.771Z,12.43
2023-02-09T19:12:28.441Z,12.73
2023-02-09T19:14:55.393Z,12.33
2023-02-09T19:17:22.510Z,11.77
2023-02-09T19:19:50.220Z,11.87
2023-02-09T19:22:20.181Z,12.47
2023-02-09T19:24:48.177Z,12.33
2023-02-09T19:27:17.243Z,13.40
2023-02-09T19:29:45.176Z,11.27
2023-02-09T19:32:14.486Z,12.37
2023-02-09T19:34:43.247Z,11.70
2023-02-09T19:37:12.804Z,11.90
2023-02-09T19:39:41.715Z,11.80
2023-02-09T19:42:08.990Z,12.23
2023-02-09T19:44:36.325Z,11.83
2023-02-09T19:47:03.406Z,12.40
2023-02-09T19:49:31.806Z,11.67
2023-02-09T19:51:59.261Z,13.13
2023-02-09T19:54:26.090Z,13.53
2023-02-09T19:56:53.200Z,13.40
2023-02-09T19:59:20.137Z,13.20
2023-02-09T20:01:47.123Z,13.53
2023-02-09T20:04:15.294Z,13.20
2023-02-09T20:06:42.536Z,12.80
2023-02-09T20:09:12.279Z,12.50
2023-02-09T20:11:39.217Z,12.07
2023-02-09T20:14:06.184Z,14.03
2023-02-09T20:16:33.393Z,13.77
2023-02-09T20:19:00.385Z,13.50
2023-02-09T20:21:27.422Z,14.77
2023-02-09T20:23:56.039Z,14.53
2023-02-09T20:26:27.146Z,14.97
2023-02-09T20:28:55.446Z,14.30
2023-02-09T20:31:28.186Z,15.23
2023-02-09T20:33:57.384Z,14.40
2023-02-09T20:36:25.575Z,16.23
2023-02-09T20:38:52.762Z,15.83
2023-02-09T20:41:19.604Z,16.73
2023-02-09T20:44:05.413Z,15.97
2023-02-09T20:46:52.278Z,15.43
2023-02-09T20:49:19.564Z,15.30
2023-02-09T20:51:47.364Z,15.73
2023-02-09T20:54:15.024Z,14.27
2023-02-09T20:56:42.168Z,13.77
2023-02-09T20:59:09.101Z,14.30
2023-02-09T21:01:39.866Z,14.97
2023-02-09T21:04:07.536Z,14.57
2023-02-09T21:06:37.110Z,14.20
2023-02-09T21:09:08.673Z,14.20
2023-02-09T21:11:35.678Z,14.47
2023-02-09T21:14:03.893Z,14.10
2023-02-09T21:16:31.492Z,14.27
2023-02-09T21:18:59.124Z,14.20
2023-02-09T21:21:27.186Z,15.87
2023-02-09T21:23:54.622Z,17.97
2023-02-09T21:26:24.695Z,18.87
2023-02-09T21:28:56.235Z,16.60
2023-02-09T21:31:27.017Z,17.80
2023-02-09T21:33:54.359Z,17.33
2023-02-09T21:36:21.188Z,15.07
2023-02-09T21:38:48.324Z,14.40
2023-02-09T21:41:42.400Z,14.83
2023-02-09T21:44:11.785Z,15.77
2023-02-09T21:46:39.126Z,15.83
2023-02-09T21:49:06.237Z,15.30
2023-02-09T21:51:33.416Z,14.27
2023-02-09T21:54:00.468Z,14.20
2023-02-09T21:56:27.389Z,15.03
2023-02-09T21:58:54.357Z,15.80
2023-02-09T22:01:21.499Z,14.07
2023-02-09T22:03:57.402Z,14.53
2023-02-09T22:06:25.657Z,15.73
2023-02-09T22:08:52.961Z,16.93
2023-02-09T22:11:19.896Z,15.83
2023-02-09T22:13:46.810Z,18.15
2023-02-09T22:16:18.730Z,15.87
2023-02-09T22:18:45.898Z,14.70
2023-02-09T22:21:12.908Z,14.97
2023-02-09T22:23:39.772Z,14.57
2023-02-09T22:26:07.507Z,14.93
2023-02-09T22:28:36.506Z,15.30
2023-02-09T22:31:14.751Z,14.43
2023-02-09T22:33:42.068Z,15.07
2023-02-09T22:36:12.517Z,14.70
2023-02-09T22:38:39.893Z,14.57
2023-02-09T22:41:21.500Z,14.60
2023-02-09T22:43:52.254Z,15.53
2023-02-09T22:46:20.688Z,15.10
2023-02-09T22:48:55.354Z,17.97
2023-02-09T22:51:24.215Z,19.37
2023-02-09T22:53:51.503Z,23.57
2023-02-09T22:56:18.442Z,19.40
2023-02-09T22:58:45.341Z,21.03
2023-02-09T23:01:13.280Z,18.20
2023-02-09T23:03:41.358Z,19.23
2023-02-09T23:06:12.009Z,18.10
2023-02-09T23:08:38.842Z,17.90
2023-02-09T23:11:08.940Z,17.83
2023-02-09T23:13:37.238Z,19.33
2023-02-09T23:16:14.258Z,20.33
2023-02-09T23:18:47.059Z,18.17
2023-02-09T23:21:14.785Z,16.83
2023-02-09T23:23:41.673Z,16.63
2023-02-09T23:26:08.626Z,17.10
2023-02-09T23:28:35.564Z,15.70
2023-02-09T23:31:07.398Z,15.50
2023-02-09T23:33:36.471Z,15.03
2023-02-09T23:36:11.900Z,14.63
2023-02-09T23:38:38.754Z,14.50
2023-02-09T23:41:07.532Z,13.97
2023-02-09T23:43:35.487Z,13.23
2023-02-09T23:46:03.639Z,13.87
2023-02-09T23:48:30.839Z,13.83
2023-02-09T23:51:02.342Z,13.47
2023-02-09T23:53:30.202Z,14.07
2023-02-09T23:56:03.687Z,13.73
2023-02-09T23:58:36.415Z,11.73
